Time;durP1;ratioP1;P1;durP2;ratioP2;P2;SDS_P1;SDS_P2;PMS_P1;PMS_P2;Temp;Humidity;BMP_temperature;BMP_pressure;BME280_temperature;BME280_humidity;BME280_pressure;Samples;Min_cycle;Max_cycle;Signal;HPM_P1;HPM_P2
2023/05/14 00:01:56;;;;;;;6.28;5.68;;;13.00;99.90;;;;;;4967902;28;20189;-66
2023/05/14 00:04:24;;;;;;;7.55;5.72;;;13.00;99.90;;;;;;4966002;28;20181;-65
2023/05/14 00:06:50;;;;;;;6.35;5.75;;;13.00;99.90;;;;;;4966487;28;20208;-66
2023/05/14 00:09:18;;;;;;;6.32;5.50;;;13.00;99.90;;;;;;4969267;28;20232;-65
2023/05/14 00:11:46;;;;;;;5.82;5.22;;;13.00;99.90;;;;;;4957242;28;20194;-65
2023/05/14 00:14:12;;;;;;;5.50;5.00;;;12.90;99.90;;;;;;4965888;28;20180;-67
2023/05/14 00:16:37;;;;;;;6.55;4.93;;;12.90;99.90;;;;;;4961990;28;20783;-66
2023/05/14 00:19:03;;;;;;;6.68;4.95;;;12.90;99.90;;;;;;4956416;29;20245;-67
2023/05/14 00:21:33;;;;;;;5.35;4.85;;;12.80;99.90;;;;;;4955224;28;20193;-67
2023/05/14 00:23:59;;;;;;;7.45;5.20;;;12.80;99.90;;;;;;4954536;28;20243;-67
2023/05/14 00:26:26;;;;;;;7.47;6.15;;;12.80;99.90;;;;;;4971047;28;20235;-67
2023/05/14 00:28:52;;;;;;;6.25;5.65;;;12.80;99.90;;;;;;4959518;28;20181;-67
2023/05/14 00:31:20;;;;;;;7.63;5.80;;;12.70;99.90;;;;;;4974527;28;20268;-66
2023/05/14 00:33:48;;;;;;;7.57;5.50;;;12.70;99.90;;;;;;4968265;28;20181;-67
2023/05/14 00:36:18;;;;;;;6.57;5.57;;;12.70;99.90;;;;;;4959134;28;20210;-67
2023/05/14 00:38:44;;;;;;;6.53;5.32;;;12.60;99.90;;;;;;4959141;29;20172;-69
2023/05/14 00:41:09;;;;;;;6.10;5.50;;;12.60;99.90;;;;;;4959581;28;20272;-67
2023/05/14 00:43:37;;;;;;;5.95;5.35;;;12.60;99.90;;;;;;4958245;28;20224;-67
2023/05/14 00:46:05;;;;;;;6.15;5.53;;;12.60;99.90;;;;;;4959937;28;20260;-65
2023/05/14 00:48:35;;;;;;;7.20;6.35;;;12.50;99.90;;;;;;4958896;29;20207;-66
2023/05/14 00:51:01;;;;;;;6.07;5.47;;;12.50;99.90;;;;;;4970575;28;20197;-66
2023/05/14 00:53:32;;;;;;;6.70;5.68;;;12.50;99.90;;;;;;4952403;29;20357;-66
2023/05/14 00:56:00;;;;;;;6.43;5.57;;;12.50;99.90;;;;;;4958336;28;20195;-65
2023/05/14 00:58:25;;;;;;;6.35;5.75;;;12.40;99.90;;;;;;4957966;28;20204;-65
2023/05/14 01:00:53;;;;;;;6.78;6.05;;;12.50;99.90;;;;;;4958894;29;20259;-65
2023/05/14 01:03:19;;;;;;;5.95;5.35;;;12.40;99.90;;;;;;4958467;28;20200;-65
2023/05/14 01:06:08;;;;;;;5.93;5.20;;;12.40;99.90;;;;;;4972677;28;20204;-65
2023/05/14 01:09:00;;;;;;;5.78;5.18;;;12.40;99.90;;;;;;4973085;28;20176;-66
2023/05/14 01:11:34;;;;;;;6.63;5.20;;;12.30;99.90;;;;;;4972354;28;20248;-65
2023/05/14 01:14:27;;;;;;;5.50;4.97;;;12.30;99.90;;;;;;4967312;28;20184;-66
2023/05/14 01:16:57;;;;;;;5.45;4.50;;;12.20;99.90;;;;;;4971361;28;20279;-59
2023/05/14 01:19:44;;;;;;;6.15;5.18;;;12.20;99.90;;;;;;4952645;29;20287;-66
2023/05/14 01:22:15;;;;;;;6.68;4.68;;;12.20;99.90;;;;;;4953151;29;20204;-66
2023/05/14 01:24:43;;;;;;;5.20;4.70;;;12.20;99.90;;;;;;4953251;29;20486;-62
2023/05/14 01:27:32;;;;;;;6.50;5.20;;;12.10;99.90;;;;;;4969697;28;20244;-66
2023/05/14 01:30:07;;;;;;;5.60;5.00;;;12.10;99.90;;;;;;4953114;29;20270;-64
2023/05/14 01:32:33;;;;;;;6.05;4.55;;;12.10;99.90;;;;;;4955171;28;20259;-64
2023/05/14 01:35:02;;;;;;;5.50;5.00;;;12.10;99.90;;;;;;4965732;28;20642;-65
2023/05/14 01:37:29;;;;;;;5.50;4.95;;;12.10;99.90;;;;;;4955374;29;20184;-64
2023/05/14 01:39:56;;;;;;;5.32;4.63;;;12.10;99.90;;;;;;4953739;29;20192;-66
2023/05/14 01:42:25;;;;;;;5.60;4.47;;;12.00;99.90;;;;;;4970085;28;20196;-66
2023/05/14 01:44:50;;;;;;;5.35;4.80;;;12.00;99.90;;;;;;4968771;28;20205;-63
2023/05/14 01:47:16;;;;;;;5.38;4.55;;;12.00;99.90;;;;;;4955637;29;20185;-66
2023/05/14 01:49:46;;;;;;;6.03;5.07;;;11.90;99.90;;;;;;4958096;28;21616;-66
2023/05/14 01:52:14;;;;;;;4.47;4.07;;;11.90;99.90;;;;;;4955203;28;20209;-64
2023/05/14 01:54:40;;;;;;;6.47;4.97;;;11.90;99.90;;;;;;4957921;28;20192;-65
2023/05/14 01:57:07;;;;;;;5.20;4.65;;;11.90;99.90;;;;;;4948729;29;20243;-65
2023/05/14 01:59:33;;;;;;;4.93;4.43;;;11.90;99.90;;;;;;4956394;28;20204;-64
2023/05/14 02:01:59;;;;;;;5.95;4.30;;;11.90;99.90;;;;;;4966045;28;20196;-64
2023/05/14 02:04:24;;;;;;;5.05;4.47;;;11.90;99.90;;;;;;4969932;28;20169;-65
2023/05/14 02:06:50;;;;;;;6.78;4.75;;;11.80;99.90;;;;;;4966196;28;20208;-66
2023/05/14 02:09:18;;;;;;;5.15;4.65;;;11.80;99.90;;;;;;4953167;28;20176;-64
2023/05/14 02:11:44;;;;;;;5.78;4.30;;;11.80;99.90;;;;;;4969262;28;20192;-64
2023/05/14 02:14:14;;;;;;;5.30;4.50;;;11.80;99.90;;;;;;4967061;28;20192;-65
2023/05/14 02:16:40;;;;;;;4.95;4.45;;;11.70;99.90;;;;;;4948037;28;20275;-62
2023/05/14 02:19:06;;;;;;;5.10;4.43;;;11.70;99.90;;;;;;4956093;28;20188;-66
2023/05/14 02:21:32;;;;;;;6.15;4.70;;;11.70;99.90;;;;;;4953643;28;20371;-66
2023/05/14 02:23:57;;;;;;;4.53;4.13;;;11.70;99.90;;;;;;4967126;28;20284;-65
2023/05/14 02:26:25;;;;;;;5.05;4.20;;;11.70;99.90;;;;;;4955249;28;20261;-65
2023/05/14 02:28:51;;;;;;;4.78;4.35;;;11.60;99.90;;;;;;4943223;29;20252;-67
2023/05/14 02:31:19;;;;;;;5.75;3.92;;;11.60;99.90;;;;;;4970414;28;20275;-65
2023/05/14 02:33:49;;;;;;;4.85;4.30;;;11.60;99.90;;;;;;4963013;28;20201;-65
2023/05/14 02:36:17;;;;;;;6.15;4.50;;;11.60;99.90;;;;;;4949799;29;20264;-65
2023/05/14 02:38:47;;;;;;;4.53;4.13;;;11.50;99.90;;;;;;4972847;28;20332;-65
2023/05/14 02:41:16;;;;;;;6.70;4.60;;;11.50;99.90;;;;;;4971304;28;20185;-65
2023/05/14 02:43:41;;;;;;;4.70;4.28;;;11.50;99.90;;;;;;4972097;28;20193;-66
2023/05/14 02:46:07;;;;;;;4.65;4.13;;;11.40;99.90;;;;;;4971065;28;20208;-65
2023/05/14 02:48:34;;;;;;;6.05;4.65;;;11.40;99.90;;;;;;4967048;28;20184;-67
2023/05/14 02:51:03;;;;;;;4.63;4.22;;;11.40;99.90;;;;;;4942389;29;20378;-66
2023/05/14 02:53:30;;;;;;;5.00;4.50;;;11.40;99.90;;;;;;4972980;28;20180;-66
2023/05/14 02:55:56;;;;;;;4.65;4.25;;;11.40;99.90;;;;;;4972385;28;20188;-66
2023/05/14 02:58:22;;;;;;;5.53;4.50;;;11.40;99.90;;;;;;4972600;28;20207;-66
2023/05/14 03:00:50;;;;;;;5.35;4.28;;;11.30;99.90;;;;;;4972137;28;20208;-67
2023/05/14 03:03:17;;;;;;;4.95;4.45;;;11.40;99.90;;;;;;4970324;28;20205;-65
2023/05/14 03:05:47;;;;;;;4.95;4.47;;;11.30;99.90;;;;;;4973182;28;20210;-64
2023/05/14 03:08:13;;;;;;;4.80;4.22;;;11.30;99.90;;;;;;4970051;28;20597;-66
2023/05/14 03:10:41;;;;;;;4.93;4.43;;;11.30;99.90;;;;;;4955125;29;20216;-65
2023/05/14 03:13:06;;;;;;;4.88;4.22;;;11.30;99.90;;;;;;4971384;28;20231;-65
2023/05/14 03:15:32;;;;;;;5.10;4.60;;;11.30;99.90;;;;;;4955863;28;20184;-65
2023/05/14 03:17:58;;;;;;;5.32;4.72;;;11.30;99.90;;;;;;4946757;28;20228;-65
2023/05/14 03:20:26;;;;;;;4.95;4.43;;;11.30;99.90;;;;;;4952709;28;20200;-68
2023/05/14 03:22:53;;;;;;;5.25;4.32;;;11.30;99.90;;;;;;4964404;28;20257;-66
2023/05/14 03:25:18;;;;;;;5.07;4.18;;;11.20;99.90;;;;;;4958524;28;20192;-65
2023/05/14 03:27:45;;;;;;;5.00;4.50;;;11.30;99.90;;;;;;4957193;28;20192;-65
2023/05/14 03:30:11;;;;;;;4.53;4.13;;;11.20;99.90;;;;;;4954589;28;20183;-66
2023/05/14 03:32:36;;;;;;;4.88;4.40;;;11.20;99.90;;;;;;4968358;28;20420;-66
2023/05/14 03:35:07;;;;;;;4.97;4.47;;;11.20;99.90;;;;;;4972633;28;20188;-64
2023/05/14 03:37:38;;;;;;;5.50;4.45;;;11.20;99.90;;;;;;4963315;28;20200;-64
2023/05/14 03:40:04;;;;;;;5.18;4.68;;;11.10;99.90;;;;;;4947746;29;20185;-64
2023/05/14 03:42:30;;;;;;;5.22;4.72;;;11.10;99.90;;;;;;4961027;28;20207;-65
2023/05/14 03:44:56;;;;;;;5.72;4.53;;;11.10;99.90;;;;;;4958305;28;20196;-65
2023/05/14 03:47:21;;;;;;;5.60;5.00;;;11.00;99.90;;;;;;4969204;28;20180;-63
2023/05/14 03:49:47;;;;;;;5.30;4.80;;;11.00;99.90;;;;;;4967217;28;20272;-66
2023/05/14 03:52:15;;;;;;;7.13;5.93;;;11.00;99.90;;;;;;4960500;28;20200;-66
2023/05/14 03:54:43;;;;;;;7.72;6.20;;;11.00;99.90;;;;;;4956860;28;20184;-66
2023/05/14 03:57:08;;;;;;;6.70;5.97;;;11.00;99.90;;;;;;4964264;28;20275;-65
2023/05/14 03:59:36;;;;;;;5.90;5.30;;;11.00;99.90;;;;;;4958053;28;20288;-64
2023/05/14 04:02:06;;;;;;;7.22;5.90;;;11.00;99.90;;;;;;4956535;28;20212;-63
2023/05/14 04:04:32;;;;;;;6.57;5.57;;;10.90;99.90;;;;;;4956184;28;20180;-61
2023/05/14 04:07:00;;;;;;;6.80;5.80;;;11.00;99.90;;;;;;4953893;29;20183;-65
2023/05/14 04:09:30;;;;;;;10.25;6.90;;;11.00;99.90;;;;;;4953610;29;20204;-64
2023/05/14 04:11:56;;;;;;;7.97;6.57;;;11.00;99.90;;;;;;4973035;28;20233;-62
2023/05/14 04:14:21;;;;;;;7.15;6.43;;;11.10;99.90;;;;;;4951822;29;20200;-65
2023/05/14 04:16:47;;;;;;;7.65;6.32;;;11.10;99.90;;;;;;4952776;28;20192;-64
2023/05/14 04:19:13;;;;;;;11.10;7.40;;;11.10;99.90;;;;;;4971950;28;20207;-65
2023/05/14 04:21:41;;;;;;;8.00;6.68;;;11.20;99.90;;;;;;4953710;28;20230;-65
2023/05/14 04:24:07;;;;;;;7.97;6.63;;;11.20;99.90;;;;;;4955841;29;20208;-65
2023/05/14 04:26:32;;;;;;;9.10;7.05;;;11.30;99.90;;;;;;4958379;28;20243;-66
2023/05/14 04:29:01;;;;;;;9.05;7.35;;;11.30;99.90;;;;;;4969751;28;20438;-65
2023/05/14 04:31:28;;;;;;;10.32;7.68;;;11.30;99.90;;;;;;4961086;28;20231;-65
2023/05/14 04:33:53;;;;;;;9.40;8.15;;;11.40;99.90;;;;;;4974608;28;20188;-66
2023/05/14 04:36:21;;;;;;;11.02;8.05;;;11.50;99.90;;;;;;4973069;28;20261;-66
2023/05/14 04:38:49;;;;;;;9.13;7.75;;;11.40;99.90;;;;;;4970817;28;20201;-65
2023/05/14 04:41:15;;;;;;;8.77;7.25;;;11.50;99.90;;;;;;4973148;28;20195;-66
2023/05/14 04:43:43;;;;;;;9.68;7.57;;;11.40;99.90;;;;;;4958697;29;20193;-66
2023/05/14 04:46:08;;;;;;;9.98;7.72;;;11.60;99.90;;;;;;4975671;28;20187;-66
2023/05/14 04:48:34;;;;;;;10.75;7.75;;;11.60;99.90;;;;;;4973863;28;20177;-65
2023/05/14 04:51:00;;;;;;;9.88;7.25;;;11.60;99.90;;;;;;4974595;28;20205;-65
2023/05/14 04:53:25;;;;;;;9.68;7.07;;;11.60;99.90;;;;;;4975885;28;20177;-66
2023/05/14 04:55:54;;;;;;;9.15;7.82;;;11.60;99.90;;;;;;4966634;28;20280;-66
2023/05/14 04:58:19;;;;;;;9.43;7.65;;;11.50;99.90;;;;;;4940795;29;20216;-66
2023/05/14 05:00:52;;;;;;;11.55;8.25;;;11.60;99.90;;;;;;4975438;28;20176;-66
2023/05/14 05:03:22;;;;;;;10.25;8.55;;;11.60;99.90;;;;;;4968621;28;20216;-66
2023/05/14 05:05:48;;;;;;;8.60;7.47;;;11.60;99.90;;;;;;4956511;29;20169;-65
2023/05/14 05:08:14;;;;;;;7.97;7.13;;;11.60;99.90;;;;;;4970190;28;20179;-66
2023/05/14 05:10:39;;;;;;;9.68;7.72;;;11.60;99.90;;;;;;4958215;28;20197;-65
2023/05/14 05:13:07;;;;;;;9.25;7.45;;;11.60;99.90;;;;;;4954248;29;20248;-66
2023/05/14 05:15:35;;;;;;;8.57;7.25;;;11.70;99.90;;;;;;4968685;28;20185;-66
2023/05/14 05:18:00;;;;;;;8.00;6.95;;;11.70;99.90;;;;;;4968572;28;20201;-65
2023/05/14 05:20:31;;;;;;;8.45;6.88;;;11.70;99.90;;;;;;4956255;28;20283;-66
2023/05/14 05:22:57;;;;;;;8.40;7.15;;;11.70;99.90;;;;;;4957137;29;20202;-64
2023/05/14 05:25:25;;;;;;;8.45;6.75;;;11.80;99.90;;;;;;4953606;28;20173;-66
2023/05/14 05:27:53;;;;;;;7.68;6.72;;;11.80;99.90;;;;;;4968467;28;20189;-66
2023/05/14 05:30:21;;;;;;;7.93;6.38;;;11.80;99.90;;;;;;4957760;28;20200;-67
2023/05/14 05:32:46;;;;;;;7.15;6.45;;;11.80;99.90;;;;;;4970286;28;20173;-64
2023/05/14 05:35:15;;;;;;;6.57;5.97;;;11.80;99.90;;;;;;4970541;28;20192;-67
2023/05/14 05:37:44;;;;;;;7.93;7.13;;;11.90;99.90;;;;;;4970365;28;20215;-66
2023/05/14 05:40:09;;;;;;;6.88;6.18;;;11.90;99.90;;;;;;4970035;28;20192;-66
2023/05/14 05:42:35;;;;;;;9.77;6.07;;;11.90;99.90;;;;;;4969979;28;20200;-63
2023/05/14 05:45:01;;;;;;;7.25;6.55;;;12.00;99.90;;;;;;4966714;28;20224;-66
2023/05/14 05:47:26;;;;;;;6.50;5.75;;;12.00;99.90;;;;;;4951380;29;20178;-65
2023/05/14 05:49:52;;;;;;;6.63;5.93;;;12.10;99.90;;;;;;4952039;28;20197;-65
2023/05/14 05:52:20;;;;;;;6.85;6.15;;;12.10;99.90;;;;;;4968749;28;20232;-65
2023/05/14 05:54:46;;;;;;;6.78;6.10;;;12.20;99.90;;;;;;4968081;28;20176;-66
2023/05/14 05:57:12;;;;;;;7.93;6.45;;;12.20;99.90;;;;;;4956824;28;20215;-66
2023/05/14 05:59:37;;;;;;;7.15;6.00;;;12.30;99.90;;;;;;4951398;29;20184;-66
2023/05/14 06:02:05;;;;;;;7.45;6.55;;;12.30;99.90;;;;;;4957523;28;20176;-66
2023/05/14 06:04:31;;;;;;;6.07;5.43;;;12.30;99.90;;;;;;4965226;28;20186;-66
2023/05/14 06:06:57;;;;;;;6.50;5.80;;;12.40;99.90;;;;;;4964707;28;20189;-67
2023/05/14 06:09:24;;;;;;;7.05;6.35;;;12.50;99.90;;;;;;4957273;28;20205;-66
2023/05/14 06:11:50;;;;;;;7.28;6.40;;;12.50;99.90;;;;;;4959734;28;20180;-67
2023/05/14 06:14:16;;;;;;;7.20;6.40;;;12.60;99.90;;;;;;4971220;28;20192;-67
2023/05/14 06:16:44;;;;;;;6.55;5.93;;;12.60;99.90;;;;;;4955389;28;20219;-66
2023/05/14 06:19:09;;;;;;;7.43;6.65;;;12.60;99.90;;;;;;4971964;28;20181;-67
2023/05/14 06:21:35;;;;;;;6.72;6.03;;;12.70;99.90;;;;;;4949684;29;20272;-68
2023/05/14 06:24:03;;;;;;;8.65;6.45;;;12.80;99.90;;;;;;4965746;28;20217;-65
2023/05/14 06:26:29;;;;;;;7.57;6.80;;;12.90;99.90;;;;;;4948119;29;20181;-64
2023/05/14 06:28:58;;;;;;;7.63;6.40;;;12.90;99.90;;;;;;4956038;29;20252;-67
2023/05/14 06:31:28;;;;;;;9.27;6.90;;;13.00;99.90;;;;;;4967323;28;20192;-67
2023/05/14 06:33:53;;;;;;;7.97;6.60;;;13.00;99.90;;;;;;4973278;28;20227;-66
2023/05/14 06:36:19;;;;;;;7.43;6.68;;;13.10;99.90;;;;;;4951131;29;20184;-68
2023/05/14 06:38:47;;;;;;;7.72;6.93;;;13.10;99.90;;;;;;4967539;28;20184;-67
2023/05/14 06:41:15;;;;;;;8.02;6.72;;;13.20;99.90;;;;;;4970288;28;20186;-67
2023/05/14 06:43:41;;;;;;;7.53;6.75;;;13.20;99.90;;;;;;4973050;28;20192;-64
2023/05/14 06:46:14;;;;;;;8.73;7.80;;;13.30;99.90;;;;;;4966614;28;20188;-66
2023/05/14 06:48:44;;;;;;;8.65;7.28;;;13.40;99.90;;;;;;4937809;29;20158;-67
2023/05/14 06:51:12;;;;;;;9.50;7.90;;;13.40;99.90;;;;;;4953462;29;20197;-67
2023/05/14 06:53:38;;;;;;;9.23;7.60;;;13.40;99.90;;;;;;4972489;28;20172;-67
2023/05/14 06:56:04;;;;;;;9.02;8.07;;;13.50;99.90;;;;;;4972310;28;20537;-67
2023/05/14 06:58:29;;;;;;;8.65;7.47;;;13.60;99.90;;;;;;4971946;28;20211;-67
2023/05/14 07:00:55;;;;;;;9.63;7.93;;;13.60;99.90;;;;;;4966721;28;20193;-68
2023/05/14 07:03:21;;;;;;;8.85;7.75;;;13.70;99.90;;;;;;4941249;29;20211;-67
2023/05/14 07:05:47;;;;;;;8.45;7.55;;;13.70;99.90;;;;;;4959934;28;20196;-67
2023/05/14 07:08:17;;;;;;;8.38;7.55;;;13.90;99.90;;;;;;4968910;28;20195;-63
2023/05/14 07:10:47;;;;;;;9.23;8.30;;;13.90;99.90;;;;;;4955819;29;20184;-67
2023/05/14 07:13:15;;;;;;;8.77;7.90;;;13.90;99.90;;;;;;4970996;28;20211;-64
2023/05/14 07:15:41;;;;;;;9.35;8.40;;;14.00;99.90;;;;;;4949908;29;20193;-67
2023/05/14 07:18:09;;;;;;;8.73;7.82;;;14.00;99.90;;;;;;4952162;28;20463;-66
2023/05/14 07:20:35;;;;;;;9.52;8.35;;;14.10;99.90;;;;;;4954784;28;20177;-68
2023/05/14 07:23:05;;;;;;;9.48;8.48;;;14.20;99.90;;;;;;4958584;28;21427;-67
2023/05/14 07:25:31;;;;;;;10.18;8.40;;;14.30;99.90;;;;;;4968355;28;20286;-67
2023/05/14 07:27:59;;;;;;;10.57;8.60;;;14.30;99.90;;;;;;4958154;28;20392;-67
2023/05/14 07:30:27;;;;;;;9.15;8.10;;;14.40;99.90;;;;;;4952097;29;20196;-66
2023/05/14 07:32:52;;;;;;;12.75;10.85;;;14.50;99.90;;;;;;4967782;28;20208;-65
2023/05/14 07:35:21;;;;;;;11.50;10.18;;;14.60;99.90;;;;;;4952299;28;20185;-67
2023/05/14 07:37:47;;;;;;;9.70;8.70;;;14.60;99.90;;;;;;4967721;28;20213;-67
2023/05/14 07:40:12;;;;;;;9.50;8.48;;;14.70;99.90;;;;;;4953470;28;20192;-67
2023/05/14 07:42:40;;;;;;;9.98;8.85;;;14.70;99.90;;;;;;4962042;28;20204;-67
2023/05/14 07:45:11;;;;;;;8.75;7.85;;;14.80;99.90;;;;;;4951990;28;20211;-67
2023/05/14 07:47:37;;;;;;;9.32;8.40;;;14.90;99.90;;;;;;4950507;29;20188;-67
2023/05/14 07:50:03;;;;;;;9.93;7.80;;;15.00;99.90;;;;;;4956478;28;20267;-67
2023/05/14 07:52:29;;;;;;;8.98;8.05;;;15.00;99.90;;;;;;4958402;28;20324;-63
2023/05/14 07:54:54;;;;;;;10.10;9.10;;;15.10;99.90;;;;;;4951106;29;20213;-68
2023/05/14 07:57:22;;;;;;;12.52;10.63;;;15.10;99.90;;;;;;4963803;28;20205;-67
2023/05/14 07:59:50;;;;;;;10.93;9.75;;;15.20;99.90;;;;;;4952582;29;20184;-65
2023/05/14 08:02:18;;;;;;;12.05;10.00;;;15.30;99.90;;;;;;4963559;28;20184;-67
2023/05/14 08:04:46;;;;;;;9.63;8.40;;;15.40;99.90;;;;;;4960095;28;20200;-66
2023/05/14 08:07:12;;;;;;;9.50;8.55;;;15.50;99.90;;;;;;4954311;28;20172;-65
2023/05/14 08:09:37;;;;;;;9.57;8.23;;;15.50;99.90;;;;;;4956011;28;20189;-67
2023/05/14 08:12:03;;;;;;;9.60;8.63;;;15.60;99.90;;;;;;4966784;28;20181;-64
2023/05/14 08:14:31;;;;;;;10.05;8.27;;;15.70;99.90;;;;;;4947636;29;20244;-67
2023/05/14 08:16:59;;;;;;;9.93;8.23;;;15.80;99.90;;;;;;4955556;28;20212;-64
2023/05/14 08:19:27;;;;;;;9.07;7.95;;;15.90;99.90;;;;;;4948764;29;20192;-67
2023/05/14 08:21:53;;;;;;;8.57;7.68;;;16.00;99.90;;;;;;4968740;28;20264;-67
2023/05/14 08:24:18;;;;;;;7.90;7.10;;;16.10;99.90;;;;;;4950770;29;20303;-67
2023/05/14 08:26:47;;;;;;;7.82;6.72;;;16.10;99.90;;;;;;4948238;28;20192;-67
2023/05/14 08:29:12;;;;;;;7.57;6.88;;;16.20;99.90;;;;;;4953969;28;20183;-66
2023/05/14 08:31:41;;;;;;;7.32;6.70;;;16.30;99.90;;;;;;4966635;28;20174;-67
2023/05/14 08:34:08;;;;;;;7.45;6.63;;;16.40;99.90;;;;;;4961709;28;20181;-66
2023/05/14 08:36:34;;;;;;;6.70;5.93;;;16.50;99.90;;;;;;4964068;28;20223;-67
2023/05/14 08:39:00;;;;;;;6.38;5.80;;;16.50;99.90;;;;;;4968642;28;20215;-67
2023/05/14 08:41:25;;;;;;;8.32;7.28;;;16.60;99.90;;;;;;4960016;28;20177;-67
2023/05/14 08:44:04;;;;;;;6.85;6.10;;;16.70;99.90;;;;;;4970929;28;20217;-66
2023/05/14 08:46:31;;;;;;;5.63;5.10;;;16.80;99.90;;;;;;4953724;29;20232;-65
2023/05/14 08:49:07;;;;;;;5.90;5.30;;;16.90;99.90;;;;;;4966482;28;20211;-62
2023/05/14 08:51:34;;;;;;;6.40;5.80;;;17.00;99.90;;;;;;4949979;29;20268;-67
2023/05/14 08:54:04;;;;;;;5.60;5.10;;;17.00;99.90;;;;;;4967509;28;20338;-67
2023/05/14 08:56:31;;;;;;;5.43;4.93;;;17.10;99.90;;;;;;4960253;28;20280;-67
2023/05/14 08:58:57;;;;;;;6.95;4.80;;;17.20;99.90;;;;;;4975257;28;20192;-67
2023/05/14 09:01:23;;;;;;;5.07;4.68;;;17.30;99.90;;;;;;4968233;28;20197;-65
2023/05/14 09:03:50;;;;;;;5.68;4.70;;;17.40;99.90;;;;;;4970837;28;20219;-65
2023/05/14 09:06:18;;;;;;;5.53;4.85;;;17.40;99.90;;;;;;4958234;28;20184;-65
2023/05/14 09:08:47;;;;;;;5.53;5.03;;;17.50;99.90;;;;;;4952833;29;20204;-66
2023/05/14 09:11:15;;;;;;;6.45;5.85;;;17.70;99.90;;;;;;4968342;28;20181;-65
2023/05/14 09:13:43;;;;;;;5.90;5.20;;;17.80;99.90;;;;;;4967093;28;20225;-66
2023/05/14 09:16:08;;;;;;;4.75;4.35;;;17.80;99.90;;;;;;4955831;28;20180;-62
2023/05/14 09:18:36;;;;;;;4.88;4.30;;;18.00;99.90;;;;;;4969137;28;20193;-66
2023/05/14 09:21:03;;;;;;;4.35;3.95;;;18.10;99.90;;;;;;4966778;28;20197;-68
2023/05/14 09:23:33;;;;;;;6.63;4.90;;;18.20;99.90;;;;;;4948149;29;20208;-66
2023/05/14 09:26:03;;;;;;;5.25;4.10;;;18.30;99.90;;;;;;4962087;28;20183;-65
2023/05/14 09:28:32;;;;;;;4.78;4.28;;;18.30;99.90;;;;;;4971237;28;20192;-65
2023/05/14 09:30:57;;;;;;;4.70;3.85;;;18.40;99.90;;;;;;4971767;28;20176;-67
2023/05/14 09:33:31;;;;;;;4.47;4.07;;;18.50;99.90;;;;;;4958104;28;20177;-67
2023/05/14 09:36:01;;;;;;;4.63;4.22;;;18.60;99.90;;;;;;4957708;28;20209;-65
2023/05/14 09:38:31;;;;;;;5.38;3.95;;;18.70;99.90;;;;;;4968035;28;20271;-67
2023/05/14 09:40:58;;;;;;;5.00;4.50;;;18.70;99.90;;;;;;4965383;28;20480;-67
2023/05/14 09:43:23;;;;;;;5.22;4.72;;;18.80;99.90;;;;;;4950301;29;20197;-68
2023/05/14 09:45:49;;;;;;;5.13;4.40;;;18.90;99.90;;;;;;4959811;28;20212;-67
2023/05/14 09:48:16;;;;;;;4.75;4.28;;;19.00;99.90;;;;;;4967304;28;20211;-67
2023/05/14 09:50:43;;;;;;;4.75;4.25;;;19.10;99.90;;;;;;4952000;28;20248;-71
2023/05/14 09:53:09;;;;;;;7.05;4.20;;;19.20;99.90;;;;;;4971554;28;20192;-68
2023/05/14 09:55:36;;;;;;;4.65;3.88;;;19.30;99.90;;;;;;4968425;28;20216;-67
2023/05/14 09:58:04;;;;;;;4.22;3.83;;;19.40;99.90;;;;;;4964177;28;20188;-69
2023/05/14 10:00:34;;;;;;;4.03;3.72;;;19.50;99.90;;;;;;4955439;28;20224;-69
2023/05/14 10:03:05;;;;;;;4.20;3.80;;;19.60;99.90;;;;;;4954245;28;20236;-67
2023/05/14 10:05:35;;;;;;;4.00;3.60;;;19.60;99.90;;;;;;4969391;28;20192;-67
2023/05/14 10:08:25;;;;;;;4.30;3.90;;;19.70;99.90;;;;;;4967853;28;20268;-67
2023/05/14 10:10:53;;;;;;;5.97;5.10;;;19.80;99.90;;;;;;4968664;28;20189;-67
2023/05/14 10:13:29;;;;;;;5.38;4.15;;;19.90;99.90;;;;;;4952798;28;20211;-67
2023/05/14 10:16:27;;;;;;;4.13;3.67;;;20.00;99.90;;;;;;4961359;28;20222;-68
2023/05/14 10:18:56;;;;;;;3.42;3.13;;;20.10;99.90;;;;;;4953035;28;20212;-66
2023/05/14 10:21:25;;;;;;;3.75;3.42;;;20.20;99.90;;;;;;4954636;28;20239;-65
2023/05/14 10:23:51;;;;;;;4.68;3.40;;;20.40;99.90;;;;;;4962567;28;20245;-63
2023/05/14 10:26:20;;;;;;;3.58;3.28;;;20.80;99.90;;;;;;4965602;28;20191;-64
2023/05/14 10:28:48;;;;;;;3.42;3.13;;;21.10;99.90;;;;;;4966401;28;20181;-68
2023/05/14 10:31:14;;;;;;;3.88;2.72;;;21.40;99.90;;;;;;4973116;28;20197;-63
2023/05/14 10:33:53;;;;;;;3.38;3.08;;;21.70;99.90;;;;;;4957887;28;20165;-67
2023/05/14 10:36:19;;;;;;;2.95;2.75;;;22.00;99.90;;;;;;4970978;28;20208;-67
2023/05/14 10:38:46;;;;;;;3.05;2.85;;;22.30;99.90;;;;;;4954319;29;20189;-66
2023/05/14 10:41:20;;;;;;;2.78;2.58;;;22.60;99.90;;;;;;4951644;29;20253;-67
2023/05/14 10:43:46;;;;;;;3.15;2.85;;;22.80;99.90;;;;;;4969137;28;20297;-66
2023/05/14 10:46:12;;;;;;;2.80;2.60;;;23.00;99.90;;;;;;4957663;28;20196;-66
2023/05/14 10:48:43;;;;;;;2.83;2.63;;;23.10;99.90;;;;;;4964215;28;20177;-67
2023/05/14 10:51:09;;;;;;;2.72;2.53;;;23.20;99.90;;;;;;4971909;28;20204;-66
2023/05/14 10:53:40;;;;;;;2.60;2.33;;;23.40;99.90;;;;;;4966465;28;20185;-66
2023/05/14 10:56:12;;;;;;;3.05;2.40;;;23.50;99.90;;;;;;4943516;29;20262;-66
2023/05/14 10:58:41;;;;;;;2.60;2.40;;;23.70;99.90;;;;;;4957907;28;20192;-66
2023/05/14 11:01:10;;;;;;;2.95;2.72;;;23.90;99.90;;;;;;4972546;28;20188;-66
2023/05/14 11:03:44;;;;;;;2.95;2.70;;;24.20;99.90;;;;;;4973186;28;20219;-66
2023/05/14 11:06:12;;;;;;;2.97;2.67;;;24.40;99.90;;;;;;4968955;28;20208;-66
2023/05/14 11:08:38;;;;;;;2.70;2.50;;;24.60;99.90;;;;;;4967285;28;20271;-66
2023/05/14 11:11:08;;;;;;;3.20;2.90;;;24.70;99.90;;;;;;4968166;28;20208;-66
2023/05/14 11:13:34;;;;;;;2.72;2.33;;;24.70;99.90;;;;;;4969145;28;20176;-66
2023/05/14 11:16:01;;;;;;;2.70;2.50;;;24.60;99.90;;;;;;4945727;28;20188;-65
2023/05/14 11:18:35;;;;;;;2.72;2.33;;;24.50;99.90;;;;;;4968010;28;20199;-65
2023/05/14 11:21:01;;;;;;;2.40;2.20;;;24.40;99.90;;;;;;4952396;29;20180;-65
2023/05/14 11:23:30;;;;;;;2.50;2.30;;;24.20;99.90;;;;;;4951248;28;20228;-65
2023/05/14 11:25:56;;;;;;;2.83;2.22;;;24.00;99.90;;;;;;4962909;28;20192;-65
2023/05/14 11:28:25;;;;;;;2.42;2.22;;;23.80;99.90;;;;;;4949864;29;20192;-66
2023/05/14 11:30:52;;;;;;;2.53;2.33;;;23.50;99.90;;;;;;4966982;28;20185;-65
2023/05/14 11:33:21;;;;;;;2.28;2.08;;;23.30;99.90;;;;;;4968085;28;20177;-66
2023/05/14 11:35:50;;;;;;;3.10;2.50;;;23.10;99.90;;;;;;4954259;28;20201;-66
2023/05/14 11:38:18;;;;;;;2.90;2.60;;;22.90;99.90;;;;;;4950567;28;20188;-66
2023/05/14 11:40:57;;;;;;;2.50;2.30;;;22.70;99.90;;;;;;4961468;28;20192;-65
2023/05/14 11:43:24;;;;;;;8.55;7.05;;;22.50;99.90;;;;;;4959518;28;20271;-65
2023/05/14 11:45:51;;;;;;;8.93;4.88;;;22.40;99.90;;;;;;4955936;28;20239;-66
2023/05/14 11:48:17;;;;;;;4.25;3.50;;;22.20;99.90;;;;;;4952118;28;20272;-67
2023/05/14 11:50:47;;;;;;;2.90;2.65;;;22.10;99.90;;;;;;4959668;28;20176;-65
2023/05/14 11:53:29;;;;;;;3.00;2.70;;;22.00;99.90;;;;;;4968481;28;20191;-65
2023/05/14 11:55:59;;;;;;;2.40;2.20;;;21.90;99.90;;;;;;4951085;28;20211;-65
2023/05/14 11:58:25;;;;;;;2.80;2.60;;;21.80;99.90;;;;;;4966146;28;20193;-66
2023/05/14 12:00:52;;;;;;;3.72;2.55;;;21.80;99.90;;;;;;4957353;28;20184;-66
2023/05/14 12:03:24;;;;;;;3.35;2.70;;;21.80;99.90;;;;;;4964135;28;20204;-66
2023/05/14 12:06:02;;;;;;;3.00;2.70;;;21.80;99.90;;;;;;4957054;28;20180;-65
2023/05/14 12:08:30;;;;;;;2.55;2.10;;;21.90;99.90;;;;;;4964728;28;20177;-68
2023/05/14 12:11:02;;;;;;;2.42;2.22;;;22.10;99.90;;;;;;4947553;29;20204;-66
2023/05/14 12:13:35;;;;;;;2.40;2.20;;;22.30;99.90;;;;;;4970893;28;20180;-67
2023/05/14 12:16:04;;;;;;;4.25;2.40;;;22.50;99.90;;;;;;4966745;28;20260;-67
2023/05/14 12:18:35;;;;;;;2.83;2.60;;;22.80;99.90;;;;;;4957625;28;20193;-66
2023/05/14 12:21:06;;;;;;;2.72;2.50;;;23.00;99.90;;;;;;4956447;29;20184;-67
2023/05/14 12:23:35;;;;;;;2.50;2.30;;;23.20;99.90;;;;;;4954956;28;20209;-67
2023/05/14 12:26:08;;;;;;;2.92;2.45;;;23.40;99.90;;;;;;4951135;29;20264;-67
2023/05/14 12:28:34;;;;;;;3.15;2.30;;;23.50;99.90;;;;;;4974792;28;20176;-67
2023/05/14 12:31:04;;;;;;;2.45;2.17;;;23.70;99.90;;;;;;4973814;28;20191;-67
2023/05/14 12:33:30;;;;;;;2.50;2.15;;;23.80;99.90;;;;;;4973404;28;20174;-68
2023/05/14 12:36:00;;;;;;;2.33;2.13;;;23.90;99.90;;;;;;4960081;28;20223;-65
2023/05/14 12:38:28;;;;;;;2.80;2.50;;;24.10;99.90;;;;;;4973949;28;20184;-66
2023/05/14 12:40:58;;;;;;;2.58;2.38;;;24.20;99.90;;;;;;4956732;28;20263;-66
2023/05/14 12:43:28;;;;;;;2.88;2.67;;;24.30;99.90;;;;;;4957072;28;20219;-66
2023/05/14 12:45:54;;;;;;;2.90;2.58;;;24.50;99.90;;;;;;4954140;28;20260;-65
2023/05/14 12:48:19;;;;;;;3.20;2.90;;;24.50;99.90;;;;;;4958739;28;20268;-66
2023/05/14 12:50:48;;;;;;;3.33;3.03;;;24.50;99.90;;;;;;4973833;28;20260;-65